sensor_id;sensor_type;location;lat;lon;timestamp;P1;durP1;ratioP1;P2;durP2;ratioP2
9346;SDS011;4712;50.698;7.164;2022-08-20T00:00:46;1.70;;;0.95;;
9346;SDS011;4712;50.698;7.164;2022-08-20T00:03:18;1.50;;;0.85;;
9346;SDS011;4712;50.698;7.164;2022-08-20T00:05:45;1.67;;;0.93;;
9346;SDS011;4712;50.698;7.164;2022-08-20T00:08:11;1.33;;;0.90;;
9346;SDS011;4712;50.698;7.164;2022-08-20T00:10:37;2.55;;;1.00;;
9346;SDS011;4712;50.698;7.164;2022-08-20T00:13:03;3.40;;;1.08;;
9346;SDS011;4712;50.698;7.164;2022-08-20T00:15:29;2.00;;;1.10;;
9346;SDS011;4712;50.698;7.164;2022-08-20T00:17:55;2.63;;;1.00;;
9346;SDS011;4712;50.698;7.164;2022-08-20T00:20:21;2.97;;;1.17;;
9346;SDS011;4712;50.698;7.164;2022-08-20T00:22:47;3.20;;;1.20;;
9346;SDS011;4712;50.698;7.164;2022-08-20T00:25:12;5.10;;;1.20;;
9346;SDS011;4712;50.698;7.164;2022-08-20T00:27:37;1.67;;;1.10;;
9346;SDS011;4712;50.698;7.164;2022-08-20T00:30:04;3.63;;;1.25;;
9346;SDS011;4712;50.698;7.164;2022-08-20T00:32:29;1.50;;;1.10;;
9346;SDS011;4712;50.698;7.164;2022-08-20T00:34:55;1.85;;;1.10;;
9346;SDS011;4712;50.698;7.164;2022-08-20T00:37:20;1.67;;;1.20;;
9346;SDS011;4712;50.698;7.164;2022-08-20T00:39:45;2.77;;;0.90;;
9346;SDS011;4712;50.698;7.164;2022-08-20T00:42:11;3.10;;;1.40;;
9346;SDS011;4712;50.698;7.164;2022-08-20T00:44:36;1.50;;;1.00;;
9346;SDS011;4712;50.698;7.164;2022-08-20T00:47:07;2.22;;;1.27;;
9346;SDS011;4712;50.698;7.164;2022-08-20T00:49:33;3.25;;;1.42;;
9346;SDS011;4712;50.698;7.164;2022-08-20T00:52:04;4.15;;;1.60;;
9346;SDS011;4712;50.698;7.164;2022-08-20T00:56:58;4.38;;;1.77;;
9346;SDS011;4712;50.698;7.164;2022-08-20T00:59:26;2.08;;;1.38;;
9346;SDS011;4712;50.698;7.164;2022-08-20T01:01:52;2.88;;;1.52;;
9346;SDS011;4712;50.698;7.164;2022-08-20T01:04:17;1.92;;;1.15;;
9346;SDS011;4712;50.698;7.164;2022-08-20T01:06:43;1.80;;;0.98;;
9346;SDS011;4712;50.698;7.164;2022-08-20T01:09:09;1.30;;;1.00;;
9346;SDS011;4712;50.698;7.164;2022-08-20T01:11:34;1.17;;;1.02;;
9346;SDS011;4712;50.698;7.164;2022-08-20T01:14:01;2.85;;;1.35;;
9346;SDS011;4712;50.698;7.164;2022-08-20T01:16:38;3.42;;;1.10;;
9346;SDS011;4712;50.698;7.164;2022-08-20T01:19:04;2.25;;;1.02;;
9346;SDS011;4712;50.698;7.164;2022-08-20T01:21:29;2.70;;;1.20;;
9346;SDS011;4712;50.698;7.164;2022-08-20T01:24:00;1.98;;;1.25;;
9346;SDS011;4712;50.698;7.164;2022-08-20T01:26:30;3.83;;;1.67;;
9346;SDS011;4712;50.698;7.164;2022-08-20T01:29:00;4.25;;;1.20;;
9346;SDS011;4712;50.698;7.164;2022-08-20T01:31:30;5.18;;;1.60;;
9346;SDS011;4712;50.698;7.164;2022-08-20T01:33:57;3.28;;;1.45;;
9346;SDS011;4712;50.698;7.164;2022-08-20T01:36:28;6.47;;;1.50;;
9346;SDS011;4712;50.698;7.164;2022-08-20T01:44:05;3.28;;;1.08;;
9346;SDS011;4712;50.698;7.164;2022-08-20T01:46:33;2.22;;;1.40;;
9346;SDS011;4712;50.698;7.164;2022-08-20T01:48:59;2.83;;;1.40;;
9346;SDS011;4712;50.698;7.164;2022-08-20T01:51:30;3.85;;;1.08;;
9346;SDS011;4712;50.698;7.164;2022-08-20T01:53:56;2.55;;;1.27;;
9346;SDS011;4712;50.698;7.164;2022-08-20T01:56:25;1.92;;;1.30;;
9346;SDS011;4712;50.698;7.164;2022-08-20T01:58:52;5.43;;;1.17;;
9346;SDS011;4712;50.698;7.164;2022-08-20T02:03:43;2.00;;;1.10;;
9346;SDS011;4712;50.698;7.164;2022-08-20T02:06:08;2.58;;;1.20;;
9346;SDS011;4712;50.698;7.164;2022-08-20T02:08:34;2.75;;;1.42;;
9346;SDS011;4712;50.698;7.164;2022-08-20T02:10:59;3.15;;;1.20;;
9346;SDS011;4712;50.698;7.164;2022-08-20T02:13:24;2.47;;;1.17;;
9346;SDS011;4712;50.698;7.164;2022-08-20T02:15:50;1.97;;;1.10;;
9346;SDS011;4712;50.698;7.164;2022-08-20T02:18:15;7.03;;;1.70;;
9346;SDS011;4712;50.698;7.164;2022-08-20T02:20:41;2.33;;;1.38;;
9346;SDS011;4712;50.698;7.164;2022-08-20T02:23:07;3.25;;;1.00;;
9346;SDS011;4712;50.698;7.164;2022-08-20T02:25:33;2.28;;;1.13;;
9346;SDS011;4712;50.698;7.164;2022-08-20T02:28:00;2.47;;;1.23;;
9346;SDS011;4712;50.698;7.164;2022-08-20T02:30:27;3.63;;;1.23;;
9346;SDS011;4712;50.698;7.164;2022-08-20T02:32:53;2.47;;;1.10;;
9346;SDS011;4712;50.698;7.164;2022-08-20T02:35:18;2.10;;;1.20;;
9346;SDS011;4712;50.698;7.164;2022-08-20T02:37:43;2.33;;;1.10;;
9346;SDS011;4712;50.698;7.164;2022-08-20T02:40:10;5.38;;;1.05;;
9346;SDS011;4712;50.698;7.164;2022-08-20T02:42:37;1.75;;;1.15;;
9346;SDS011;4712;50.698;7.164;2022-08-20T02:45:03;2.15;;;1.40;;
9346;SDS011;4712;50.698;7.164;2022-08-20T02:47:29;3.85;;;1.45;;
9346;SDS011;4712;50.698;7.164;2022-08-20T02:49:55;2.88;;;1.38;;
9346;SDS011;4712;50.698;7.164;2022-08-20T02:52:21;1.02;;;0.90;;
9346;SDS011;4712;50.698;7.164;2022-08-20T02:54:46;2.85;;;1.27;;
9346;SDS011;4712;50.698;7.164;2022-08-20T02:57:14;1.35;;;1.23;;
9346;SDS011;4712;50.698;7.164;2022-08-20T02:59:39;2.10;;;1.23;;
9346;SDS011;4712;50.698;7.164;2022-08-20T03:02:05;4.15;;;1.35;;
9346;SDS011;4712;50.698;7.164;2022-08-20T03:04:30;1.75;;;1.15;;
9346;SDS011;4712;50.698;7.164;2022-08-20T03:06:56;2.20;;;1.13;;
9346;SDS011;4712;50.698;7.164;2022-08-20T03:09:21;3.05;;;1.40;;
9346;SDS011;4712;50.698;7.164;2022-08-20T09:44:46;6.55;;;5.10;;
9346;SDS011;4712;50.698;7.164;2022-08-20T09:47:11;4.77;;;4.13;;
9346;SDS011;4712;50.698;7.164;2022-08-20T09:49:37;5.10;;;4.15;;
9346;SDS011;4712;50.698;7.164;2022-08-20T09:52:03;4.00;;;3.60;;
9346;SDS011;4712;50.698;7.164;2022-08-20T09:54:29;5.03;;;3.75;;
9346;SDS011;4712;50.698;7.164;2022-08-20T09:56:57;4.07;;;3.60;;
9346;SDS011;4712;50.698;7.164;2022-08-20T09:59:23;4.43;;;3.80;;
9346;SDS011;4712;50.698;7.164;2022-08-20T10:01:49;3.65;;;3.13;;
9346;SDS011;4712;50.698;7.164;2022-08-20T10:04:14;4.93;;;3.00;;
9346;SDS011;4712;50.698;7.164;2022-08-20T10:11:29;5.70;;;3.03;;
9346;SDS011;4712;50.698;7.164;2022-08-20T10:13:55;3.63;;;2.70;;
9346;SDS011;4712;50.698;7.164;2022-08-20T10:57:30;7.68;;;4.07;;
9346;SDS011;4712;50.698;7.164;2022-08-20T10:59:56;7.10;;;3.50;;
9346;SDS011;4712;50.698;7.164;2022-08-20T11:02:22;6.30;;;3.53;;
9346;SDS011;4712;50.698;7.164;2022-08-20T11:04:47;6.15;;;3.40;;
9346;SDS011;4712;50.698;7.164;2022-08-20T11:07:20;8.93;;;3.45;;
9346;SDS011;4712;50.698;7.164;2022-08-20T11:09:48;5.68;;;3.40;;
9346;SDS011;4712;50.698;7.164;2022-08-20T11:12:13;5.25;;;3.35;;
9346;SDS011;4712;50.698;7.164;2022-08-20T11:14:39;7.50;;;3.00;;
9346;SDS011;4712;50.698;7.164;2022-08-20T11:17:04;5.80;;;2.92;;
9346;SDS011;4712;50.698;7.164;2022-08-20T11:19:30;5.85;;;2.38;;
9346;SDS011;4712;50.698;7.164;2022-08-20T11:21:55;5.43;;;2.65;;
9346;SDS011;4712;50.698;7.164;2022-08-20T11:24:21;8.37;;;2.87;;
9346;SDS011;4712;50.698;7.164;2022-08-20T11:26:46;4.90;;;2.20;;
9346;SDS011;4712;50.698;7.164;2022-08-20T11:29:12;3.47;;;2.03;;
9346;SDS011;4712;50.698;7.164;2022-08-20T11:31:37;7.32;;;2.38;;
9346;SDS011;4712;50.698;7.164;2022-08-20T11:34:03;4.00;;;2.50;;
9346;SDS011;4712;50.698;7.164;2022-08-20T11:36:28;6.00;;;2.50;;
9346;SDS011;4712;50.698;7.164;2022-08-20T11:41:18;11.35;;;3.00;;
9346;SDS011;4712;50.698;7.164;2022-08-20T11:43:43;7.53;;;2.47;;
9346;SDS011;4712;50.698;7.164;2022-08-20T11:46:08;8.00;;;2.30;;
9346;SDS011;4712;50.698;7.164;2022-08-20T11:48:33;5.73;;;2.20;;
9346;SDS011;4712;50.698;7.164;2022-08-20T11:50:59;4.63;;;2.43;;
9346;SDS011;4712;50.698;7.164;2022-08-20T11:53:24;4.82;;;2.03;;
9346;SDS011;4712;50.698;7.164;2022-08-20T11:55:49;4.10;;;1.90;;
9346;SDS011;4712;50.698;7.164;2022-08-20T11:58:14;5.83;;;2.13;;
9346;SDS011;4712;50.698;7.164;2022-08-20T12:00:40;9.90;;;2.10;;
9346;SDS011;4712;50.698;7.164;2022-08-20T12:03:05;4.63;;;1.80;;
9346;SDS011;4712;50.698;7.164;2022-08-20T12:05:31;6.90;;;2.50;;
9346;SDS011;4712;50.698;7.164;2022-08-20T12:07:59;6.30;;;2.20;;
9346;SDS011;4712;50.698;7.164;2022-08-20T12:10:24;5.97;;;2.20;;
9346;SDS011;4712;50.698;7.164;2022-08-20T12:12:50;8.27;;;2.50;;
9346;SDS011;4712;50.698;7.164;2022-08-20T12:15:15;6.70;;;2.17;;
9346;SDS011;4712;50.698;7.164;2022-08-20T12:17:41;5.60;;;2.10;;
9346;SDS011;4712;50.698;7.164;2022-08-20T12:20:07;5.67;;;2.37;;
9346;SDS011;4712;50.698;7.164;2022-08-20T12:22:33;5.68;;;2.05;;
9346;SDS011;4712;50.698;7.164;2022-08-20T12:24:58;3.60;;;1.80;;
9346;SDS011;4712;50.698;7.164;2022-08-20T12:27:24;8.10;;;1.93;;
9346;SDS011;4712;50.698;7.164;2022-08-20T12:29:51;7.60;;;2.75;;
9346;SDS011;4712;50.698;7.164;2022-08-20T12:32:17;5.80;;;1.90;;
9346;SDS011;4712;50.698;7.164;2022-08-20T12:34:43;9.43;;;2.20;;
9346;SDS011;4712;50.698;7.164;2022-08-20T12:37:09;6.20;;;2.43;;
9346;SDS011;4712;50.698;7.164;2022-08-20T12:39:36;8.50;;;2.88;;
9346;SDS011;4712;50.698;7.164;2022-08-20T12:42:02;5.63;;;2.75;;
9346;SDS011;4712;50.698;7.164;2022-08-20T12:49:17;5.50;;;2.83;;
9346;SDS011;4712;50.698;7.164;2022-08-20T12:51:42;5.27;;;2.13;;
9346;SDS011;4712;50.698;7.164;2022-08-20T12:54:07;10.40;;;2.67;;
9346;SDS011;4712;50.698;7.164;2022-08-20T12:56:33;5.20;;;2.43;;
9346;SDS011;4712;50.698;7.164;2022-08-20T12:58:58;6.20;;;2.30;;
9346;SDS011;4712;50.698;7.164;2022-08-20T13:06:13;4.27;;;2.00;;
9346;SDS011;4712;50.698;7.164;2022-08-20T13:08:38;7.03;;;2.80;;
9346;SDS011;4712;50.698;7.164;2022-08-20T13:11:03;6.57;;;2.93;;
9346;SDS011;4712;50.698;7.164;2022-08-20T13:13:29;5.18;;;2.05;;
9346;SDS011;4712;50.698;7.164;2022-08-20T13:18:19;5.93;;;2.70;;
9346;SDS011;4712;50.698;7.164;2022-08-20T13:20:44;5.53;;;2.43;;
9346;SDS011;4712;50.698;7.164;2022-08-20T13:23:09;6.47;;;2.65;;
9346;SDS011;4712;50.698;7.164;2022-08-20T13:25:35;5.97;;;2.50;;
9346;SDS011;4712;50.698;7.164;2022-08-20T13:28:00;12.93;;;2.50;;
9346;SDS011;4712;50.698;7.164;2022-08-20T13:30:28;10.45;;;3.08;;
9346;SDS011;4712;50.698;7.164;2022-08-20T13:32:53;7.03;;;2.97;;
9346;SDS011;4712;50.698;7.164;2022-08-20T13:35:18;5.15;;;2.20;;
9346;SDS011;4712;50.698;7.164;2022-08-20T13:37:44;6.35;;;2.40;;
9346;SDS011;4712;50.698;7.164;2022-08-20T13:40:09;7.95;;;2.88;;
9346;SDS011;4712;50.698;7.164;2022-08-20T13:42:35;7.18;;;2.83;;
9346;SDS011;4712;50.698;7.164;2022-08-20T13:45:00;10.23;;;2.85;;
9346;SDS011;4712;50.698;7.164;2022-08-20T13:47:27;9.40;;;3.27;;
9346;SDS011;4712;50.698;7.164;2022-08-20T13:50:08;9.90;;;2.78;;
9346;SDS011;4712;50.698;7.164;2022-08-20T13:52:34;6.97;;;3.22;;
9346;SDS011;4712;50.698;7.164;2022-08-20T13:54:59;9.90;;;3.10;;
9346;SDS011;4712;50.698;7.164;2022-08-20T13:57:24;12.07;;;3.65;;
9346;SDS011;4712;50.698;7.164;2022-08-20T13:59:51;9.35;;;3.33;;
9346;SDS011;4712;50.698;7.164;2022-08-20T14:02:16;8.05;;;3.22;;
9346;SDS011;4712;50.698;7.164;2022-08-20T14:04:42;11.63;;;3.60;;
9346;SDS011;4712;50.698;7.164;2022-08-20T14:07:08;9.27;;;3.40;;
9346;SDS011;4712;50.698;7.164;2022-08-20T14:09:35;12.32;;;2.25;;
9346;SDS011;4712;50.698;7.164;2022-08-20T14:12:00;8.85;;;2.60;;
9346;SDS011;4712;50.698;7.164;2022-08-20T14:14:26;7.27;;;2.90;;
9346;SDS011;4712;50.698;7.164;2022-08-20T14:16:51;7.93;;;2.57;;
9346;SDS011;4712;50.698;7.164;2022-08-20T14:19:16;10.83;;;2.83;;
9346;SDS011;4712;50.698;7.164;2022-08-20T14:21:41;9.10;;;3.07;;
9346;SDS011;4712;50.698;7.164;2022-08-20T14:24:06;8.80;;;2.40;;
9346;SDS011;4712;50.698;7.164;2022-08-20T14:26:31;6.77;;;2.53;;
9346;SDS011;4712;50.698;7.164;2022-08-20T14:28:57;8.30;;;2.83;;
9346;SDS011;4712;50.698;7.164;2022-08-20T14:31:22;9.50;;;3.17;;
9346;SDS011;4712;50.698;7.164;2022-08-20T14:33:47;8.63;;;3.10;;
9346;SDS011;4712;50.698;7.164;2022-08-20T14:36:12;10.23;;;3.27;;
9346;SDS011;4712;50.698;7.164;2022-08-20T14:38:37;15.77;;;3.27;;
9346;SDS011;4712;50.698;7.164;2022-08-20T14:41:08;7.50;;;2.63;;
9346;SDS011;4712;50.698;7.164;2022-08-20T14:43:34;8.53;;;3.30;;
9346;SDS011;4712;50.698;7.164;2022-08-20T14:45:59;11.07;;;3.00;;
9346;SDS011;4712;50.698;7.164;2022-08-20T14:48:24;9.33;;;2.90;;
9346;SDS011;4712;50.698;7.164;2022-08-20T14:50:52;12.38;;;2.72;;
9346;SDS011;4712;50.698;7.164;2022-08-20T14:53:19;13.07;;;3.40;;
9346;SDS011;4712;50.698;7.164;2022-08-20T14:55:46;8.98;;;3.38;;
9346;SDS011;4712;50.698;7.164;2022-08-20T14:58:12;8.35;;;2.95;;
9346;SDS011;4712;50.698;7.164;2022-08-20T15:00:37;9.52;;;3.03;;
9346;SDS011;4712;50.698;7.164;2022-08-20T15:03:03;10.63;;;2.55;;
9346;SDS011;4712;50.698;7.164;2022-08-20T15:05:28;9.20;;;2.70;;
9346;SDS011;4712;50.698;7.164;2022-08-20T15:07:54;15.85;;;3.22;;
9346;SDS011;4712;50.698;7.164;2022-08-20T15:10:24;5.78;;;2.35;;
9346;SDS011;4712;50.698;7.164;2022-08-20T15:12:49;12.55;;;2.88;;
9346;SDS011;4712;50.698;7.164;2022-08-20T15:15:15;8.88;;;2.50;;
9346;SDS011;4712;50.698;7.164;2022-08-20T15:18:14;8.82;;;2.80;;
9346;SDS011;4712;50.698;7.164;2022-08-20T15:20:33;10.38;;;2.70;;
9346;SDS011;4712;50.698;7.164;2022-08-20T15:22:58;7.85;;;2.60;;
9346;SDS011;4712;50.698;7.164;2022-08-20T15:25:24;9.60;;;2.90;;
9346;SDS011;4712;50.698;7.164;2022-08-20T15:27:50;9.60;;;2.63;;
9346;SDS011;4712;50.698;7.164;2022-08-20T15:30:19;13.57;;;2.33;;
9346;SDS011;4712;50.698;7.164;2022-08-20T15:32:45;5.95;;;2.20;;
9346;SDS011;4712;50.698;7.164;2022-08-20T15:35:10;8.10;;;2.53;;
9346;SDS011;4712;50.698;7.164;2022-08-20T15:37:41;9.88;;;2.63;;
9346;SDS011;4712;50.698;7.164;2022-08-20T15:40:06;9.02;;;2.65;;
9346;SDS011;4712;50.698;7.164;2022-08-20T15:42:32;14.15;;;2.67;;
9346;SDS011;4712;50.698;7.164;2022-08-20T15:44:58;8.53;;;2.67;;
9346;SDS011;4712;50.698;7.164;2022-08-20T15:47:24;9.27;;;2.55;;
9346;SDS011;4712;50.698;7.164;2022-08-20T15:49:53;11.52;;;3.17;;
9346;SDS011;4712;50.698;7.164;2022-08-20T15:52:19;8.35;;;2.47;;
9346;SDS011;4712;50.698;7.164;2022-08-20T15:54:44;6.90;;;2.45;;
9346;SDS011;4712;50.698;7.164;2022-08-20T16:00:00;12.38;;;2.75;;
9346;SDS011;4712;50.698;7.164;2022-08-20T16:10:40;7.45;;;2.03;;
9346;SDS011;4712;50.698;7.164;2022-08-20T16:16:00;6.13;;;2.23;;
9346;SDS011;4712;50.698;7.164;2022-08-20T16:18:26;7.55;;;2.53;;
9346;SDS011;4712;50.698;7.164;2022-08-20T16:20:53;6.57;;;2.10;;
9346;SDS011;4712;50.698;7.164;2022-08-20T16:23:20;6.68;;;2.05;;
9346;SDS011;4712;50.698;7.164;2022-08-20T16:28:39;8.52;;;2.03;;
9346;SDS011;4712;50.698;7.164;2022-08-20T16:31:11;6.65;;;2.10;;
9346;SDS011;4712;50.698;7.164;2022-08-20T16:33:41;6.30;;;2.28;;
9346;SDS011;4712;50.698;7.164;2022-08-20T16:36:54;6.78;;;2.55;;
9346;SDS011;4712;50.698;7.164;2022-08-20T16:38:59;7.13;;;2.20;;
9346;SDS011;4712;50.698;7.164;2022-08-20T16:41:30;8.40;;;2.35;;
9346;SDS011;4712;50.698;7.164;2022-08-20T16:44:00;4.63;;;2.15;;
9346;SDS011;4712;50.698;7.164;2022-08-20T16:46:27;4.15;;;1.60;;
9346;SDS011;4712;50.698;7.164;2022-08-20T16:48:55;5.57;;;1.77;;
9346;SDS011;4712;50.698;7.164;2022-08-20T16:51:39;13.77;;;2.50;;
9346;SDS011;4712;50.698;7.164;2022-08-20T16:54:04;7.57;;;2.38;;
9346;SDS011;4712;50.698;7.164;2022-08-20T16:56:31;8.43;;;2.45;;
9346;SDS011;4712;50.698;7.164;2022-08-20T16:59:00;7.03;;;1.90;;
9346;SDS011;4712;50.698;7.164;2022-08-20T17:01:25;12.23;;;2.28;;
9346;SDS011;4712;50.698;7.164;2022-08-20T17:03:51;20.25;;;2.83;;
9346;SDS011;4712;50.698;7.164;2022-08-20T17:06:35;6.27;;;2.13;;
9346;SDS011;4712;50.698;7.164;2022-08-20T17:09:03;6.70;;;2.20;;
9346;SDS011;4712;50.698;7.164;2022-08-20T17:11:30;7.15;;;2.17;;
9346;SDS011;4712;50.698;7.164;2022-08-20T17:14:10;14.05;;;2.67;;
9346;SDS011;4712;50.698;7.164;2022-08-20T17:16:46;6.43;;;2.53;;
9346;SDS011;4712;50.698;7.164;2022-08-20T17:19:13;5.28;;;2.05;;
9346;SDS011;4712;50.698;7.164;2022-08-20T17:21:41;6.93;;;2.13;;
9346;SDS011;4712;50.698;7.164;2022-08-20T17:24:18;8.75;;;2.30;;
9346;SDS011;4712;50.698;7.164;2022-08-20T17:26:46;7.15;;;2.42;;
9346;SDS011;4712;50.698;7.164;2022-08-20T17:29:13;7.22;;;2.35;;
9346;SDS011;4712;50.698;7.164;2022-08-20T17:31:40;9.20;;;2.35;;
9346;SDS011;4712;50.698;7.164;2022-08-20T17:39:32;9.52;;;2.72;;
9346;SDS011;4712;50.698;7.164;2022-08-20T17:42:03;7.20;;;2.33;;
9346;SDS011;4712;50.698;7.164;2022-08-20T17:44:30;4.97;;;2.13;;
9346;SDS011;4712;50.698;7.164;2022-08-20T17:46:57;6.65;;;2.50;;
9346;SDS011;4712;50.698;7.164;2022-08-20T17:49:34;7.88;;;2.30;;
9346;SDS011;4712;50.698;7.164;2022-08-20T17:52:00;7.03;;;2.58;;
9346;SDS011;4712;50.698;7.164;2022-08-20T17:54:28;6.75;;;2.63;;
9346;SDS011;4712;50.698;7.164;2022-08-20T17:56:57;6.57;;;2.50;;
9346;SDS011;4712;50.698;7.164;2022-08-20T17:59:27;5.18;;;2.47;;
9346;SDS011;4712;50.698;7.164;2022-08-20T18:01:56;9.88;;;2.78;;
9346;SDS011;4712;50.698;7.164;2022-08-20T18:04:21;6.32;;;2.60;;
9346;SDS011;4712;50.698;7.164;2022-08-20T18:06:49;11.53;;;4.70;;
9346;SDS011;4712;50.698;7.164;2022-08-20T18:11:43;11.23;;;2.60;;
9346;SDS011;4712;50.698;7.164;2022-08-20T18:21:52;6.68;;;2.08;;
9346;SDS011;4712;50.698;7.164;2022-08-20T18:24:26;7.75;;;2.20;;
9346;SDS011;4712;50.698;7.164;2022-08-20T18:27:00;7.88;;;2.78;;
9346;SDS011;4712;50.698;7.164;2022-08-20T18:29:30;10.30;;;2.63;;
9346;SDS011;4712;50.698;7.164;2022-08-20T18:31:57;6.13;;;2.50;;
9346;SDS011;4712;50.698;7.164;2022-08-20T18:36:55;10.38;;;2.70;;
9346;SDS011;4712;50.698;7.164;2022-08-20T18:39:25;6.97;;;3.20;;
9346;SDS011;4712;50.698;7.164;2022-08-20T18:41:59;6.10;;;2.67;;
9346;SDS011;4712;50.698;7.164;2022-08-20T18:47:00;6.88;;;2.88;;
9346;SDS011;4712;50.698;7.164;2022-08-20T18:49:27;5.72;;;2.30;;
9346;SDS011;4712;50.698;7.164;2022-08-20T18:51:53;7.10;;;2.13;;
9346;SDS011;4712;50.698;7.164;2022-08-20T18:54:25;7.60;;;2.90;;
9346;SDS011;4712;50.698;7.164;2022-08-20T18:57:00;9.90;;;3.15;;
9346;SDS011;4712;50.698;7.164;2022-08-20T18:59:26;7.90;;;2.53;;
9346;SDS011;4712;50.698;7.164;2022-08-20T19:01:53;5.75;;;2.72;;
9346;SDS011;4712;50.698;7.164;2022-08-20T19:04:20;6.07;;;2.90;;
9346;SDS011;4712;50.698;7.164;2022-08-20T19:06:51;5.97;;;2.90;;
9346;SDS011;4712;50.698;7.164;2022-08-20T19:14:53;7.32;;;3.40;;
9346;SDS011;4712;50.698;7.164;2022-08-20T19:17:30;12.05;;;3.70;;
9346;SDS011;4712;50.698;7.164;2022-08-20T19:20:00;8.15;;;3.88;;
9346;SDS011;4712;50.698;7.164;2022-08-20T19:22:25;7.45;;;3.67;;
9346;SDS011;4712;50.698;7.164;2022-08-20T19:24:52;6.75;;;3.72;;
9346;SDS011;4712;50.698;7.164;2022-08-20T19:27:17;9.35;;;4.50;;
9346;SDS011;4712;50.698;7.164;2022-08-20T19:29:46;8.68;;;4.65;;
9346;SDS011;4712;50.698;7.164;2022-08-20T19:32:16;8.02;;;4.53;;
9346;SDS011;4712;50.698;7.164;2022-08-20T19:34:48;10.40;;;4.97;;
9346;SDS011;4712;50.698;7.164;2022-08-20T19:37:16;9.60;;;5.13;;
9346;SDS011;4712;50.698;7.164;2022-08-20T19:39:42;13.93;;;4.82;;
9346;SDS011;4712;50.698;7.164;2022-08-20T19:44:48;8.18;;;3.70;;
9346;SDS011;4712;50.698;7.164;2022-08-20T19:47:16;7.75;;;4.50;;
9346;SDS011;4712;50.698;7.164;2022-08-20T19:49:49;6.68;;;3.63;;
9346;SDS011;4712;50.698;7.164;2022-08-20T19:52:37;7.05;;;3.80;;
9346;SDS011;4712;50.698;7.164;2022-08-20T19:55:12;6.57;;;3.92;;
9346;SDS011;4712;50.698;7.164;2022-08-20T19:57:39;8.20;;;4.25;;
9346;SDS011;4712;50.698;7.164;2022-08-20T20:00:12;14.68;;;8.10;;
9346;SDS011;4712;50.698;7.164;2022-08-20T20:02:39;9.95;;;4.65;;
9346;SDS011;4712;50.698;7.164;2022-08-20T20:05:06;7.70;;;4.80;;
9346;SDS011;4712;50.698;7.164;2022-08-20T20:07:43;6.55;;;4.03;;
9346;SDS011;4712;50.698;7.164;2022-08-20T20:10:27;12.05;;;8.23;;
9346;SDS011;4712;50.698;7.164;2022-08-20T20:12:52;10.02;;;6.90;;
9346;SDS011;4712;50.698;7.164;2022-08-20T20:15:18;13.17;;;4.03;;
9346;SDS011;4712;50.698;7.164;2022-08-20T20:17:43;6.88;;;3.72;;
9346;SDS011;4712;50.698;7.164;2022-08-20T20:20:19;5.80;;;3.33;;
9346;SDS011;4712;50.698;7.164;2022-08-20T20:22:52;9.23;;;3.88;;
9346;SDS011;4712;50.698;7.164;2022-08-20T20:27:54;8.02;;;4.07;;
9346;SDS011;4712;50.698;7.164;2022-08-20T20:30:22;11.23;;;5.53;;
9346;SDS011;4712;50.698;7.164;2022-08-20T20:32:48;9.45;;;4.95;;
9346;SDS011;4712;50.698;7.164;2022-08-20T20:35:25;10.18;;;4.95;;
9346;SDS011;4712;50.698;7.164;2022-08-20T20:37:55;12.00;;;4.97;;
9346;SDS011;4712;50.698;7.164;2022-08-20T20:40:23;7.60;;;4.03;;
9346;SDS011;4712;50.698;7.164;2022-08-20T20:43:00;9.07;;;4.18;;
9346;SDS011;4712;50.698;7.164;2022-08-20T20:45:28;7.85;;;3.75;;
9346;SDS011;4712;50.698;7.164;2022-08-20T20:47:54;10.10;;;4.28;;
9346;SDS011;4712;50.698;7.164;2022-08-20T20:50:30;6.53;;;3.72;;
9346;SDS011;4712;50.698;7.164;2022-08-20T20:52:58;10.38;;;3.95;;
9346;SDS011;4712;50.698;7.164;2022-08-20T20:55:25;7.20;;;3.88;;
9346;SDS011;4712;50.698;7.164;2022-08-20T20:57:51;6.25;;;4.05;;
9346;SDS011;4712;50.698;7.164;2022-08-20T21:00:17;7.85;;;3.85;;
9346;SDS011;4712;50.698;7.164;2022-08-20T21:02:43;7.40;;;4.13;;
9346;SDS011;4712;50.698;7.164;2022-08-20T21:05:09;8.10;;;3.45;;
9346;SDS011;4712;50.698;7.164;2022-08-20T21:07:42;14.98;;;11.98;;
9346;SDS011;4712;50.698;7.164;2022-08-20T21:10:08;7.10;;;4.03;;
9346;SDS011;4712;50.698;7.164;2022-08-20T21:12:33;5.88;;;3.63;;
9346;SDS011;4712;50.698;7.164;2022-08-20T21:14:58;10.80;;;3.73;;
9346;SDS011;4712;50.698;7.164;2022-08-20T21:17:23;7.03;;;3.53;;
9346;SDS011;4712;50.698;7.164;2022-08-20T21:19:49;12.80;;;3.73;;
9346;SDS011;4712;50.698;7.164;2022-08-20T21:22:15;8.23;;;4.07;;
9346;SDS011;4712;50.698;7.164;2022-08-20T21:24:40;7.53;;;3.67;;
9346;SDS011;4712;50.698;7.164;2022-08-20T21:27:06;8.20;;;3.40;;
9346;SDS011;4712;50.698;7.164;2022-08-20T21:29:31;6.88;;;3.70;;
9346;SDS011;4712;50.698;7.164;2022-08-20T21:31:57;9.32;;;3.78;;
9346;SDS011;4712;50.698;7.164;2022-08-20T21:34:23;14.15;;;3.58;;
9346;SDS011;4712;50.698;7.164;2022-08-20T21:36:48;7.05;;;3.35;;
9346;SDS011;4712;50.698;7.164;2022-08-20T21:39:13;8.20;;;3.55;;
9346;SDS011;4712;50.698;7.164;2022-08-20T21:41:39;11.77;;;4.00;;
9346;SDS011;4712;50.698;7.164;2022-08-20T21:44:27;8.82;;;4.10;;
9346;SDS011;4712;50.698;7.164;2022-08-20T21:46:53;7.70;;;4.50;;
9346;SDS011;4712;50.698;7.164;2022-08-20T21:49:18;7.35;;;3.65;;
9346;SDS011;4712;50.698;7.164;2022-08-20T21:51:44;9.02;;;3.17;;
9346;SDS011;4712;50.698;7.164;2022-08-20T21:54:10;8.23;;;3.45;;
9346;SDS011;4712;50.698;7.164;2022-08-20T21:56:35;7.05;;;3.75;;
9346;SDS011;4712;50.698;7.164;2022-08-20T21:59:01;16.05;;;3.75;;
9346;SDS011;4712;50.698;7.164;2022-08-20T22:01:27;8.73;;;3.88;;
9346;SDS011;4712;50.698;7.164;2022-08-20T22:03:53;5.80;;;3.80;;
9346;SDS011;4712;50.698;7.164;2022-08-20T22:06:19;8.20;;;3.97;;
9346;SDS011;4712;50.698;7.164;2022-08-20T22:08:44;9.55;;;4.60;;
9346;SDS011;4712;50.698;7.164;2022-08-20T22:11:09;7.97;;;3.60;;
9346;SDS011;4712;50.698;7.164;2022-08-20T22:13:35;8.85;;;3.92;;
9346;SDS011;4712;50.698;7.164;2022-08-20T22:16:02;7.25;;;3.58;;
9346;SDS011;4712;50.698;7.164;2022-08-20T22:18:27;6.95;;;3.17;;
9346;SDS011;4712;50.698;7.164;2022-08-20T22:20:53;7.72;;;2.80;;
9346;SDS011;4712;50.698;7.164;2022-08-20T22:23:19;6.93;;;3.42;;
9346;SDS011;4712;50.698;7.164;2022-08-20T22:25:44;9.40;;;3.13;;
9346;SDS011;4712;50.698;7.164;2022-08-20T22:28:09;8.10;;;3.00;;
9346;SDS011;4712;50.698;7.164;2022-08-20T22:30:35;5.83;;;3.30;;
9346;SDS011;4712;50.698;7.164;2022-08-20T22:33:01;9.32;;;2.90;;
9346;SDS011;4712;50.698;7.164;2022-08-20T22:35:27;7.13;;;3.78;;
9346;SDS011;4712;50.698;7.164;2022-08-20T22:37:52;12.73;;;3.58;;
9346;SDS011;4712;50.698;7.164;2022-08-20T22:40:18;8.40;;;3.30;;
9346;SDS011;4712;50.698;7.164;2022-08-20T22:42:43;5.35;;;3.25;;
9346;SDS011;4712;50.698;7.164;2022-08-20T22:45:08;7.07;;;3.50;;
9346;SDS011;4712;50.698;7.164;2022-08-20T22:47:34;8.93;;;4.22;;
9346;SDS011;4712;50.698;7.164;2022-08-20T22:49:59;8.98;;;3.50;;
9346;SDS011;4712;50.698;7.164;2022-08-20T22:52:26;7.70;;;3.70;;
9346;SDS011;4712;50.698;7.164;2022-08-20T22:54:51;8.07;;;3.80;;
9346;SDS011;4712;50.698;7.164;2022-08-20T22:57:16;8.88;;;3.45;;
9346;SDS011;4712;50.698;7.164;2022-08-20T22:59:41;6.93;;;3.63;;
9346;SDS011;4712;50.698;7.164;2022-08-20T23:02:09;8.00;;;4.17;;
9346;SDS011;4712;50.698;7.164;2022-08-20T23:04:35;8.55;;;3.45;;
9346;SDS011;4712;50.698;7.164;2022-08-20T23:07:01;9.03;;;4.27;;
9346;SDS011;4712;50.698;7.164;2022-08-20T23:09:26;9.90;;;4.30;;
